LDZA/ZAG METAR and TAF weather

Enter ICAO airport designator
Station Type Date Time Source
LDZA METAR 2021/05/14 21:30 UTC NOAA

LDZA 142130Z VRB01KT CAVOK 12/09 Q1010 NOSIG


Station Type Date Time Source
LDZA Decoded METAR 2021/05/14 21:30 UTC NOAA

Zagreb / Pleso, Croatia (LDZA) 45-44N 016-04E 107M
May 14, 2021 - 05:30 PM EDT / 2021.05.14 2130 UTC
Wind: Variable at 1 MPH (1 KT):0
Visibility: greater than 7 mile(s):0
Temperature: 53 F (12 C)
Dew Point: 48 F (9 C)
Relative Humidity: 81%
Pressure (altimeter): 29.83 in. Hg (1010 hPa)
ob: LDZA 142130Z VRB01KT CAVOK 12/09 Q1010 NOSIG
cycle: 21

Station Type Date Time Source
LDZA TAF 2021/05/14 18:27 UTC NOAA

TAF LDZA 141725Z 1418/1518 22005KT CAVOK TX21/1513Z TN11/1503Z PROB30
TEMPO 1512/1517 22015KT SHRA FEW040TCU

Example: see airport list